createdAt,value
2023-03-29T00:00:24.348Z,99060.21
2023-03-29T00:02:08.016Z,99056.80
2023-03-29T00:03:56.629Z,99061.84
2023-03-29T00:05:49.489Z,99061.48
2023-03-29T00:07:35.307Z,99059.08
2023-03-29T00:09:11.639Z,99056.82
2023-03-29T00:10:56.708Z,99059.69
2023-03-29T00:12:38.032Z,99060.58
2023-03-29T00:14:18.793Z,99061.94
2023-03-29T00:15:54.955Z,99065.33
2023-03-29T00:17:28.865Z,99064.41
2023-03-29T00:19:04.335Z,99065.53
2023-03-29T00:20:38.119Z,99066.14
2023-03-29T00:22:11.129Z,99065.84
2023-03-29T00:23:38.344Z,99068.44
2023-03-29T00:25:13.850Z,99067.67
2023-03-29T00:26:54.715Z,99064.05
2023-03-29T00:28:28.118Z,99067.95
2023-03-29T00:30:04.091Z,99063.34
2023-03-29T00:31:35.902Z,99064.95
2023-03-29T00:33:21.026Z,99066.38
2023-03-29T00:35:06.400Z,99069.83
2023-03-29T00:36:41.450Z,99066.09
2023-03-29T00:38:26.185Z,99066.12
2023-03-29T00:39:48.262Z,99066.48
2023-03-29T00:41:24.385Z,99057.88
2023-03-29T00:43:01.081Z,99064.71
2023-03-29T00:46:46.492Z,99065.60
2023-03-29T00:48:31.289Z,99063.63
2023-03-29T00:50:06.052Z,99062.61
2023-03-29T00:51:39.483Z,99059.86
2023-03-29T00:53:20.167Z,99062.97
2023-03-29T00:54:43.285Z,99061.29
2023-03-29T00:56:36.667Z,99059.82
2023-03-29T00:57:58.783Z,99059.31
2023-03-29T00:59:40.023Z,99057.14
2023-03-29T01:01:15.437Z,99056.16
2023-03-29T01:02:51.012Z,99052.88
2023-03-29T01:04:36.550Z,99056.54
2023-03-29T01:06:00.598Z,99053.13
2023-03-29T01:07:41.563Z,99054.75
2023-03-29T01:09:14.779Z,99050.05
2023-03-29T01:11:05.063Z,99048.98
2023-03-29T01:12:50.441Z,99045.93
2023-03-29T01:14:40.629Z,99046.21
2023-03-29T01:16:27.460Z,99047.76
2023-03-29T01:18:02.044Z,99048.36
2023-03-29T01:19:49.391Z,99048.57
2023-03-29T01:21:35.207Z,99048.28
2023-03-29T01:23:09.346Z,99047.14
2023-03-29T01:24:42.488Z,99047.05
2023-03-29T01:26:27.668Z,99041.49
2023-03-29T01:27:57.327Z,99044.73
2023-03-29T01:29:30.690Z,99046.66
2023-03-29T01:30:56.825Z,99046.70
2023-03-29T01:32:30.322Z,99045.39
2023-03-29T01:34:15.473Z,99034.95
2023-03-29T01:36:04.100Z,99040.83
2023-03-29T01:37:50.586Z,99039.88
2023-03-29T01:39:45.453Z,99035.31
2023-03-29T01:41:30.604Z,99035.71
2023-03-29T01:43:11.265Z,99038.66
2023-03-29T01:44:37.527Z,99035.41
2023-03-29T01:46:22.944Z,99032.28
2023-03-29T01:48:04.326Z,99026.83
2023-03-29T01:49:37.697Z,99033.50
2023-03-29T01:51:11.390Z,99037.15
2023-03-29T01:52:33.319Z,99038.34
2023-03-29T01:54:06.553Z,99036.98
2023-03-29T01:55:39.989Z,99040.00
2023-03-29T01:57:16.334Z,99040.05
2023-03-29T01:58:56.230Z,99039.20
2023-03-29T02:00:49.988Z,99038.57
2023-03-29T02:02:19.282Z,99020.58
2023-03-29T02:04:06.278Z,99038.36
2023-03-29T02:06:00.469Z,99035.48
2023-03-29T02:07:41.913Z,99034.17
2023-03-29T02:09:07.129Z,99034.48
2023-03-29T02:10:29.386Z,99032.83
2023-03-29T02:11:58.486Z,99032.16
2023-03-29T02:13:32.321Z,99032.55
2023-03-29T02:15:18.032Z,99035.38
2023-03-29T02:16:51.917Z,99026.21
2023-03-29T02:18:28.167Z,99038.67
2023-03-29T02:20:13.624Z,99035.42
2023-03-29T02:21:49.732Z,99044.16
2023-03-29T02:23:21.425Z,99043.44
2023-03-29T02:24:48.592Z,99041.20
2023-03-29T02:26:36.323Z,99041.45
2023-03-29T02:27:58.067Z,99038.48
2023-03-29T02:29:33.552Z,99040.62
2023-03-29T02:31:09.299Z,99039.59
2023-03-29T02:32:55.417Z,99037.80
2023-03-29T02:34:19.217Z,99034.29
2023-03-29T02:35:53.557Z,99036.87
2023-03-29T02:37:46.361Z,99033.58
2023-03-29T02:39:17.761Z,99036.08
2023-03-29T02:41:00.073Z,99036.41
2023-03-29T02:42:34.061Z,99036.84
2023-03-29T02:44:19.809Z,99038.09
2023-03-29T02:45:56.819Z,99037.69
2023-03-29T02:47:42.300Z,99037.77
2023-03-29T02:49:16.407Z,99037.06
2023-03-29T02:50:50.334Z,99033.59
2023-03-29T02:52:31.482Z,99037.43
2023-03-29T02:54:16.613Z,99039.20
2023-03-29T02:55:50.473Z,99041.02
2023-03-29T02:57:38.292Z,99036.33
2023-03-29T02:59:14.280Z,99038.87
2023-03-29T03:00:38.795Z,99035.61
2023-03-29T03:02:23.812Z,99036.58
2023-03-29T03:04:09.415Z,99032.77
2023-03-29T03:05:44.056Z,99023.71
2023-03-29T03:07:28.621Z,99032.40
2023-03-29T03:09:13.969Z,99030.92
2023-03-29T03:10:52.209Z,99031.13
2023-03-29T03:12:39.465Z,99026.64
2023-03-29T03:14:15.357Z,99033.45
2023-03-29T03:15:50.644Z,99030.98
2023-03-29T03:17:24.705Z,99035.64
2023-03-29T03:18:58.494Z,99037.46
2023-03-29T03:20:43.802Z,99035.66
2023-03-29T03:22:10.269Z,99032.21
2023-03-29T03:23:55.691Z,99029.70
2023-03-29T03:25:20.094Z,99036.52
2023-03-29T03:27:05.378Z,99030.65
2023-03-29T03:28:55.550Z,99033.16
2023-03-29T03:31:03.745Z,99034.40
2023-03-29T03:32:47.459Z,99034.14
2023-03-29T03:34:29.810Z,99033.08
2023-03-29T03:36:06.968Z,99034.48
2023-03-29T03:37:38.134Z,99036.81
2023-03-29T03:39:11.825Z,99037.30
2023-03-29T03:40:50.321Z,99037.95
2023-03-29T03:42:12.411Z,99041.09
2023-03-29T03:43:48.627Z,99043.34
2023-03-29T03:45:24.214Z,99042.91
2023-03-29T03:47:13.734Z,99043.79
2023-03-29T03:49:07.763Z,99040.77
2023-03-29T03:50:46.426Z,99040.39
2023-03-29T03:52:22.445Z,99044.02
2023-03-29T03:53:58.440Z,99043.20
2023-03-29T03:55:30.088Z,99042.85
2023-03-29T03:57:24.654Z,99044.17
2023-03-29T03:59:02.721Z,99044.73
2023-03-29T04:00:52.072Z,99045.02
2023-03-29T04:02:57.238Z,99050.86
2023-03-29T04:04:39.136Z,99048.44
2023-03-29T04:06:32.496Z,99056.16
2023-03-29T04:08:24.256Z,99054.18
2023-03-29T04:10:45.166Z,99059.95
2023-03-29T04:12:23.959Z,99059.91
2023-03-29T04:14:17.866Z,99057.86
2023-03-29T04:15:57.165Z,99053.34
2023-03-29T04:17:44.739Z,99057.23
2023-03-29T04:19:25.575Z,99058.53
2023-03-29T04:20:47.881Z,99055.89
2023-03-29T04:22:41.466Z,99058.73
2023-03-29T04:24:16.313Z,99058.20
2023-03-29T04:25:59.292Z,99059.59
2023-03-29T04:27:49.539Z,99057.14
2023-03-29T04:30:16.562Z,99057.45
2023-03-29T04:32:23.362Z,99054.97
2023-03-29T04:34:09.133Z,99057.65
2023-03-29T04:35:46.702Z,99051.97
2023-03-29T04:37:34.086Z,99054.59
2023-03-29T04:39:19.480Z,99053.95
2023-03-29T04:40:59.211Z,99052.38
2023-03-29T04:42:38.970Z,99053.99
2023-03-29T04:44:24.070Z,99053.60
2023-03-29T04:46:10.751Z,99052.70
2023-03-29T04:48:36.486Z,99050.36
2023-03-29T04:50:21.329Z,99055.41
2023-03-29T04:52:14.428Z,99054.81
2023-03-29T04:53:59.355Z,99054.31
2023-03-29T04:55:29.390Z,99053.63
2023-03-29T04:57:19.053Z,99048.06
2023-03-29T04:59:17.952Z,99047.09
2023-03-29T05:00:51.701Z,99048.85
2023-03-29T05:02:32.456Z,99048.24
2023-03-29T05:04:17.312Z,99047.56
2023-03-29T05:06:06.654Z,99049.52
2023-03-29T05:07:52.166Z,99044.69
2023-03-29T05:09:32.039Z,99051.63
2023-03-29T05:11:11.252Z,99052.25
2023-03-29T05:12:33.157Z,99050.50
2023-03-29T05:14:10.149Z,99052.84
2023-03-29T05:15:55.369Z,99051.84
2023-03-29T05:17:32.957Z,99053.67
2023-03-29T05:19:21.980Z,99053.91
2023-03-29T05:20:57.517Z,99055.20
2023-03-29T05:22:49.747Z,99047.98
2023-03-29T05:25:02.407Z,99046.40
2023-03-29T05:26:38.283Z,99049.87
2023-03-29T05:28:09.186Z,99049.95
2023-03-29T05:29:45.238Z,99054.36
2023-03-29T05:31:37.814Z,99058.09
2023-03-29T05:33:12.031Z,99061.38
2023-03-29T05:34:36.683Z,99066.20
2023-03-29T05:35:58.670Z,99063.78
2023-03-29T05:37:22.588Z,99065.70
2023-03-29T05:38:50.199Z,99067.06
2023-03-29T05:40:25.822Z,99065.09
2023-03-29T05:42:43.349Z,99068.61
2023-03-29T05:44:07.443Z,99062.14
2023-03-29T05:45:44.126Z,99062.89
2023-03-29T05:47:25.031Z,99062.67
2023-03-29T05:48:52.772Z,99064.28
2023-03-29T05:50:15.404Z,99060.52
2023-03-29T05:51:42.208Z,99064.16
2023-03-29T05:53:15.347Z,99065.61
2023-03-29T05:54:44.829Z,99067.92
2023-03-29T05:56:21.074Z,99069.54
2023-03-29T05:57:57.703Z,99073.48
2023-03-29T05:59:23.564Z,99071.09
2023-03-29T06:00:55.139Z,99068.26
2023-03-29T06:02:52.493Z,99068.27
2023-03-29T06:04:19.030Z,99065.30
2023-03-29T06:05:49.765Z,99066.17
2023-03-29T06:07:21.321Z,99064.70
2023-03-29T06:09:00.460Z,99068.60
2023-03-29T06:10:39.855Z,99069.70
2023-03-29T06:12:34.919Z,99069.38
2023-03-29T06:13:57.516Z,99072.30
2023-03-29T06:15:22.118Z,99069.52
2023-03-29T06:16:47.556Z,99071.61
2023-03-29T06:18:11.331Z,99071.52
2023-03-29T06:19:47.959Z,99069.67
2023-03-29T06:21:12.728Z,99069.89
2023-03-29T06:22:46.763Z,99069.13
2023-03-29T06:24:20.796Z,99068.69
2023-03-29T06:26:00.712Z,99068.48
2023-03-29T06:27:35.222Z,99066.36
2023-03-29T06:29:12.983Z,99066.77
2023-03-29T06:30:37.628Z,99069.80
2023-03-29T06:32:13.548Z,99071.41
2023-03-29T06:33:52.629Z,99071.61
2023-03-29T06:35:52.957Z,99069.37
2023-03-29T06:37:46.513Z,99067.70
2023-03-29T06:39:28.040Z,99076.48
2023-03-29T06:41:15.050Z,99074.05
2023-03-29T06:43:02.774Z,99078.46
2023-03-29T06:44:35.905Z,99077.67
2023-03-29T06:46:16.169Z,99076.67
2023-03-29T06:48:21.162Z,99077.41
2023-03-29T06:49:55.423Z,99073.08
2023-03-29T06:51:50.433Z,99075.52
2023-03-29T06:53:35.818Z,99075.09
2023-03-29T06:54:58.614Z,99070.61
2023-03-29T06:56:32.198Z,99069.02
2023-03-29T06:58:15.547Z,99066.73
2023-03-29T07:00:04.887Z,99067.08
2023-03-29T07:02:09.838Z,99066.73
2023-03-29T07:04:03.818Z,99062.83
2023-03-29T07:05:31.643Z,99067.05
2023-03-29T07:07:06.293Z,99070.60
2023-03-29T07:08:43.679Z,99067.27
2023-03-29T07:10:38.594Z,99067.04
2023-03-29T07:12:47.795Z,99062.23
2023-03-29T07:14:28.731Z,99063.48
2023-03-29T07:16:13.910Z,99067.21
2023-03-29T07:18:17.165Z,99063.70
2023-03-29T07:20:03.366Z,99062.41
2023-03-29T07:21:50.320Z,99063.38
2023-03-29T07:23:35.975Z,99063.73
2023-03-29T07:25:12.109Z,99061.27
2023-03-29T07:27:00.296Z,99057.64
2023-03-29T07:28:43.968Z,99058.11
2023-03-29T07:30:32.016Z,99060.98
2023-03-29T07:32:24.395Z,99059.98
2023-03-29T07:34:11.994Z,99058.42
2023-03-29T07:35:48.319Z,99054.34
2023-03-29T07:37:33.415Z,99055.69
2023-03-29T07:39:08.348Z,99054.51
2023-03-29T07:40:54.231Z,99048.89
2023-03-29T07:42:36.566Z,99051.75
2023-03-29T07:44:13.763Z,99046.20
2023-03-29T07:46:07.427Z,99048.35
2023-03-29T07:47:53.244Z,99050.91
2023-03-29T07:49:38.587Z,99054.12
2023-03-29T07:51:08.012Z,99053.87
2023-03-29T07:53:04.345Z,99048.90
2023-03-29T07:54:42.926Z,99054.55
2023-03-29T07:56:45.112Z,99054.27
2023-03-29T07:58:36.926Z,99053.58
2023-03-29T08:00:11.176Z,99052.41
2023-03-29T08:01:55.987Z,99051.66
2023-03-29T08:03:32.592Z,99050.64
2023-03-29T08:05:08.784Z,99051.53
2023-03-29T08:07:02.253Z,99050.13
2023-03-29T08:08:58.619Z,99053.64
2023-03-29T08:10:34.196Z,99049.31
2023-03-29T08:12:16.238Z,99046.44
2023-03-29T08:13:52.034Z,99047.22
2023-03-29T08:15:45.657Z,99047.53
2023-03-29T08:17:39.325Z,99045.56
2023-03-29T08:19:24.535Z,99047.38
2023-03-29T08:21:20.493Z,99046.33
2023-03-29T08:22:50.844Z,99045.94
2023-03-29T08:24:48.984Z,99048.23
2023-03-29T08:26:33.809Z,99044.56
2023-03-29T08:27:58.820Z,99046.17
2023-03-29T08:29:52.965Z,99040.04
2023-03-29T08:31:47.015Z,99035.17
2023-03-29T08:33:27.842Z,99032.10
2023-03-29T08:35:11.526Z,99034.51
2023-03-29T08:36:59.687Z,99034.70
2023-03-29T08:38:51.518Z,99029.36
2023-03-29T08:40:36.804Z,99030.12
2023-03-29T08:42:22.605Z,99028.91
2023-03-29T08:43:58.356Z,99029.39
2023-03-29T08:46:09.689Z,99024.09
2023-03-29T08:47:43.584Z,99021.80
2023-03-29T08:49:18.548Z,99022.34
2023-03-29T08:50:58.940Z,99015.33
2023-03-29T08:52:28.032Z,99009.13
2023-03-29T08:54:13.177Z,99005.08
2023-03-29T08:56:51.843Z,99010.20
2023-03-29T08:58:36.087Z,99011.35
2023-03-29T09:00:10.540Z,99009.56
2023-03-29T09:01:48.654Z,99015.67
2023-03-29T09:03:22.294Z,99014.83
2023-03-29T09:05:11.232Z,99010.80
2023-03-29T09:06:48.934Z,99011.38
2023-03-29T09:08:28.981Z,99011.59
2023-03-29T09:10:03.685Z,99009.53
2023-03-29T09:11:52.375Z,99012.14
2023-03-29T09:13:25.723Z,99008.94
2023-03-29T09:15:06.562Z,99010.22
2023-03-29T09:16:53.298Z,99008.76
2023-03-29T09:18:26.392Z,99007.89
2023-03-29T09:20:00.191Z,99008.70
2023-03-29T09:21:36.379Z,99003.98
2023-03-29T09:23:12.130Z,99008.35
2023-03-29T09:25:08.968Z,99004.09
2023-03-29T09:26:49.990Z,99000.66
2023-03-29T09:28:41.885Z,99001.56
2023-03-29T09:30:27.051Z,98995.76
2023-03-29T09:31:58.706Z,98992.74
2023-03-29T09:33:34.620Z,98992.72
2023-03-29T09:35:15.382Z,98986.69
2023-03-29T09:37:00.704Z,98986.30
2023-03-29T09:38:22.907Z,98991.11
2023-03-29T09:40:05.286Z,98990.58
2023-03-29T09:41:41.231Z,98992.45
2023-03-29T09:43:26.166Z,98995.04
2023-03-29T09:44:48.551Z,98992.91
2023-03-29T09:46:16.061Z,98991.78
2023-03-29T09:47:41.078Z,98989.44
2023-03-29T09:49:04.973Z,98991.22
2023-03-29T09:50:47.362Z,98992.71
2023-03-29T09:52:16.775Z,98990.96
2023-03-29T09:54:06.301Z,98990.40
2023-03-29T09:56:06.646Z,98990.10
2023-03-29T09:58:27.374Z,98989.38
2023-03-29T10:00:04.211Z,98987.34
2023-03-29T10:01:48.297Z,98987.20
2023-03-29T10:03:24.494Z,98985.20
2023-03-29T10:04:58.547Z,98986.41
2023-03-29T10:06:34.194Z,98983.67
2023-03-29T10:08:08.327Z,98980.14
2023-03-29T10:09:49.336Z,98979.17
2023-03-29T10:11:14.366Z,98976.02
2023-03-29T10:12:50.415Z,98973.35
2023-03-29T10:14:31.173Z,98977.72
2023-03-29T10:16:02.593Z,98977.48
2023-03-29T10:17:24.398Z,98975.40
2023-03-29T10:19:09.372Z,98971.52
2023-03-29T10:20:48.401Z,98971.70
2023-03-29T10:22:21.475Z,98972.46
2023-03-29T10:24:15.421Z,98974.20
2023-03-29T10:25:38.765Z,98970.61
2023-03-29T10:27:04.417Z,98971.23
2023-03-29T10:28:39.632Z,98969.30
2023-03-29T10:30:03.652Z,98972.73
2023-03-29T10:31:32.991Z,98968.88
2023-03-29T10:33:17.775Z,98964.41
2023-03-29T10:34:47.870Z,98967.34
2023-03-29T10:36:09.613Z,98963.46
2023-03-29T10:37:33.556Z,98965.61
2023-03-29T10:39:18.995Z,98965.95
2023-03-29T10:41:04.614Z,98964.71
2023-03-29T10:42:55.329Z,98963.51
2023-03-29T10:44:32.916Z,98965.98
2023-03-29T10:46:14.363Z,98960.17
2023-03-29T10:47:48.581Z,98961.02
2023-03-29T10:49:42.096Z,98951.02
2023-03-29T10:51:15.494Z,98949.15
2023-03-29T10:52:37.916Z,98947.17
2023-03-29T10:53:59.635Z,98943.75
2023-03-29T10:55:44.507Z,98939.85
2023-03-29T10:57:17.500Z,98943.70
2023-03-29T10:59:04.148Z,98947.79
2023-03-29T11:00:40.149Z,98945.11
2023-03-29T11:02:04.073Z,98939.81
2023-03-29T11:03:40.183Z,98935.04
2023-03-29T11:05:13.579Z,98934.26
2023-03-29T11:06:47.438Z,98929.89
2023-03-29T11:08:09.015Z,98933.14
2023-03-29T11:09:49.822Z,98927.41
2023-03-29T11:11:23.344Z,98930.38
2023-03-29T11:13:16.627Z,98931.03
2023-03-29T11:15:13.550Z,98930.17
2023-03-29T11:16:43.301Z,98924.91
2023-03-29T11:18:28.799Z,98923.06
2023-03-29T11:19:53.110Z,98921.73
2023-03-29T11:21:14.596Z,98920.66
2023-03-29T11:22:58.549Z,98918.96
2023-03-29T11:24:33.790Z,98927.73
2023-03-29T11:26:14.245Z,98928.05
2023-03-29T11:28:07.942Z,98923.90
2023-03-29T11:29:41.475Z,98918.04
2023-03-29T11:31:23.004Z,98920.59
2023-03-29T11:32:56.780Z,98916.55
2023-03-29T11:34:30.013Z,98915.06
2023-03-29T11:36:01.778Z,98914.05
2023-03-29T11:37:47.528Z,98913.88
2023-03-29T11:39:09.549Z,98906.91
2023-03-29T11:40:44.635Z,98904.61
2023-03-29T11:42:29.608Z,98910.26
2023-03-29T11:43:53.217Z,98895.51
2023-03-29T11:45:25.349Z,98899.27
2023-03-29T11:46:54.743Z,98888.48
2023-03-29T11:48:28.322Z,98897.13
2023-03-29T11:50:07.236Z,98889.20
2023-03-29T11:51:54.302Z,98887.27
2023-03-29T11:53:18.478Z,98880.84
2023-03-29T11:54:52.268Z,98880.02
2023-03-29T11:56:26.237Z,98877.55
2023-03-29T11:57:50.917Z,98871.77
2023-03-29T11:59:26.367Z,98871.27
2023-03-29T12:01:04.245Z,98868.18
2023-03-29T12:02:26.476Z,98863.77
2023-03-29T12:03:51.040Z,98855.81
2023-03-29T12:05:44.659Z,98863.65
2023-03-29T12:07:17.820Z,98859.09
2023-03-29T12:08:41.657Z,98860.66
2023-03-29T12:10:26.642Z,98861.04
2023-03-29T12:12:07.621Z,98857.20
2023-03-29T12:14:00.849Z,98860.70
2023-03-29T12:15:41.615Z,98850.31
2023-03-29T12:17:26.404Z,98857.27
2023-03-29T12:18:55.667Z,98854.09
2023-03-29T12:20:31.563Z,98853.67
2023-03-29T12:22:16.188Z,98850.27
2023-03-29T12:24:00.584Z,98848.20
2023-03-29T12:25:34.014Z,98839.33
2023-03-29T12:27:08.227Z,98837.62
2023-03-29T12:28:32.880Z,98826.36
2023-03-29T12:29:55.271Z,98838.61
2023-03-29T12:31:31.163Z,98843.12
2023-03-29T12:33:15.137Z,98841.88
2023-03-29T12:35:01.485Z,98840.84
2023-03-29T12:37:01.967Z,98836.36
2023-03-29T12:39:02.049Z,98832.16
2023-03-29T12:40:43.046Z,98834.23
2023-03-29T12:42:23.400Z,98832.55
2023-03-29T12:44:00.575Z,98828.42
2023-03-29T12:45:50.787Z,98820.48
2023-03-29T12:47:26.492Z,98825.36
2023-03-29T12:49:07.538Z,98822.83
2023-03-29T12:51:01.109Z,98819.79
2023-03-29T12:52:34.359Z,98821.23
2023-03-29T12:54:08.257Z,98821.73
2023-03-29T12:55:56.717Z,98815.49
2023-03-29T12:57:30.279Z,98812.02
2023-03-29T12:59:09.174Z,98809.63
2023-03-29T13:00:33.339Z,98804.73
2023-03-29T13:02:15.911Z,98808.36
2023-03-29T13:03:49.835Z,98811.17
2023-03-29T13:05:30.653Z,98816.19
2023-03-29T13:07:14.466Z,98813.84
2023-03-29T13:09:07.969Z,98812.24
2023-03-29T13:10:50.466Z,98810.54
2023-03-29T13:12:14.523Z,98806.76
2023-03-29T13:14:03.948Z,98805.38
2023-03-29T13:15:33.009Z,98805.05
2023-03-29T13:16:59.785Z,98805.35
2023-03-29T13:18:29.685Z,98803.04
2023-03-29T13:20:03.016Z,98801.89
2023-03-29T13:21:24.959Z,98799.60
2023-03-29T13:22:58.608Z,98795.89
2023-03-29T13:24:32.046Z,98792.73
2023-03-29T13:26:07.559Z,98795.52
2023-03-29T13:27:43.472Z,98789.55
2023-03-29T13:29:28.235Z,98784.85
2023-03-29T13:31:09.985Z,98788.02
2023-03-29T13:32:39.384Z,98787.98
2023-03-29T13:34:19.813Z,98784.36
2023-03-29T13:36:13.291Z,98773.56
2023-03-29T13:38:06.848Z,98779.20
2023-03-29T13:39:49.505Z,98775.91
2023-03-29T13:41:29.933Z,98776.14
2023-03-29T13:43:15.166Z,98772.95
2023-03-29T13:44:56.285Z,98774.09
2023-03-29T13:46:49.680Z,98768.27
2023-03-29T13:48:11.023Z,98768.29
2023-03-29T13:49:44.532Z,98764.40
2023-03-29T13:51:17.759Z,98770.34
2023-03-29T13:52:51.412Z,98772.32
2023-03-29T13:54:20.254Z,98770.23
2023-03-29T13:55:49.830Z,98766.58
2023-03-29T13:57:13.650Z,98765.35
2023-03-29T13:58:49.589Z,98761.37
2023-03-29T14:00:17.712Z,98764.49
2023-03-29T14:02:11.490Z,98764.25
2023-03-29T14:04:00.633Z,98769.64
2023-03-29T14:05:25.065Z,98767.73
2023-03-29T14:06:47.328Z,98762.26
2023-03-29T14:08:10.853Z,98760.30
2023-03-29T14:09:32.685Z,98758.84
2023-03-29T14:11:18.578Z,98753.91
2023-03-29T14:13:03.854Z,98758.70
2023-03-29T14:14:51.721Z,98760.95
2023-03-29T14:16:51.597Z,98762.79
2023-03-29T14:18:13.424Z,98762.15
2023-03-29T14:19:35.389Z,98760.80
2023-03-29T14:21:07.535Z,98758.95
2023-03-29T14:22:43.659Z,98750.09
2023-03-29T14:24:15.489Z,98749.35
2023-03-29T14:25:49.183Z,98744.98
2023-03-29T14:27:29.929Z,98751.77
2023-03-29T14:28:56.227Z,98746.40
2023-03-29T14:30:31.924Z,98747.27
2023-03-29T14:32:07.928Z,98748.55
2023-03-29T14:33:52.165Z,98743.27
2023-03-29T14:35:33.165Z,98750.50
2023-03-29T14:37:18.273Z,98747.65
2023-03-29T14:38:59.443Z,98743.83
2023-03-29T14:40:40.209Z,98744.34
2023-03-29T14:42:16.009Z,98745.80
2023-03-29T14:43:51.728Z,98746.44
2023-03-29T14:45:13.473Z,98747.58
2023-03-29T14:46:56.066Z,98743.61
2023-03-29T14:48:36.732Z,98745.34
2023-03-29T14:50:22.263Z,98750.91
2023-03-29T14:51:46.265Z,98751.20
2023-03-29T14:53:39.808Z,98748.36
2023-03-29T14:55:25.802Z,98744.98
2023-03-29T14:57:08.193Z,98735.17
2023-03-29T14:59:01.684Z,98740.42
2023-03-29T15:00:24.543Z,98741.92
2023-03-29T15:01:58.438Z,98729.33
2023-03-29T15:03:31.970Z,98725.26
2023-03-29T15:05:11.714Z,98724.80
2023-03-29T15:06:56.610Z,98724.76
2023-03-29T15:08:32.493Z,98728.58
2023-03-29T15:10:18.401Z,98723.25
2023-03-29T15:11:54.319Z,98723.95
2023-03-29T15:13:28.364Z,98726.48
2023-03-29T15:15:13.577Z,98729.48
2023-03-29T15:16:59.238Z,98730.23
2023-03-29T15:18:52.409Z,98732.48
2023-03-29T15:20:28.419Z,98728.02
2023-03-29T15:22:13.315Z,98728.73
2023-03-29T15:23:58.373Z,98727.77
2023-03-29T15:25:43.852Z,98723.74
2023-03-29T15:27:29.133Z,98724.44
2023-03-29T15:29:14.646Z,98726.63
2023-03-29T15:31:07.917Z,98728.21
2023-03-29T15:32:54.954Z,98726.28
2023-03-29T15:34:48.546Z,98723.04
2023-03-29T15:36:12.491Z,98725.16
2023-03-29T15:37:53.321Z,98722.09
2023-03-29T15:39:30.072Z,98723.42
2023-03-29T15:41:15.267Z,98720.77
2023-03-29T15:43:00.427Z,98719.98
2023-03-29T15:44:36.250Z,98723.34
2023-03-29T15:46:12.289Z,98716.41
2023-03-29T15:47:34.602Z,98715.77
2023-03-29T15:49:08.470Z,98720.28
2023-03-29T15:51:05.477Z,98718.36
2023-03-29T15:52:30.901Z,98720.17
2023-03-29T15:54:15.866Z,98718.17
2023-03-29T15:55:50.772Z,98716.89
2023-03-29T15:57:24.528Z,98708.26
2023-03-29T15:59:09.782Z,98703.16
2023-03-29T16:00:43.909Z,98703.08
2023-03-29T16:02:24.255Z,98698.50
2023-03-29T16:03:59.903Z,98696.76
2023-03-29T16:05:26.067Z,98696.46
2023-03-29T16:07:11.321Z,98702.33
2023-03-29T16:08:58.864Z,98700.57
2023-03-29T16:10:32.893Z,98700.60
2023-03-29T16:12:07.529Z,98699.98
2023-03-29T16:13:36.634Z,98696.64
2023-03-29T16:15:21.992Z,98694.21
2023-03-29T16:16:46.332Z,98693.05
2023-03-29T16:18:19.846Z,98689.52
2023-03-29T16:19:53.011Z,98687.00
2023-03-29T16:21:26.696Z,98687.15
2023-03-29T16:23:11.929Z,98688.58
2023-03-29T16:24:57.257Z,98688.25
2023-03-29T16:26:33.010Z,98687.63
2023-03-29T16:28:13.659Z,98689.84
2023-03-29T16:29:58.807Z,98692.14
2023-03-29T16:31:39.605Z,98683.20
2023-03-29T16:33:24.835Z,98688.66
2023-03-29T16:34:58.888Z,98685.81
2023-03-29T16:36:43.154Z,98686.36
2023-03-29T16:38:16.222Z,98685.83
2023-03-29T16:40:04.937Z,98682.19
2023-03-29T16:41:53.413Z,98681.00
2023-03-29T16:43:46.891Z,98676.16
2023-03-29T16:45:40.739Z,98666.73
2023-03-29T16:47:16.403Z,98670.47
2023-03-29T16:49:10.238Z,98668.77
2023-03-29T16:50:41.591Z,98664.69
2023-03-29T16:52:17.689Z,98662.91
2023-03-29T16:53:47.764Z,98661.14
2023-03-29T16:55:20.913Z,98647.77
2023-03-29T16:56:52.917Z,98653.67
2023-03-29T16:58:38.767Z,98654.23
2023-03-29T17:00:23.787Z,98659.46
2023-03-29T17:02:05.320Z,98660.39
2023-03-29T17:03:34.434Z,98662.80
2023-03-29T17:05:01.128Z,98667.30
2023-03-29T17:06:27.240Z,98667.20
2023-03-29T17:08:12.624Z,98668.48
2023-03-29T17:09:46.253Z,98663.69
2023-03-29T17:11:07.834Z,98666.41
2023-03-29T17:12:41.519Z,98667.09
2023-03-29T17:14:15.523Z,98670.13
2023-03-29T17:15:51.506Z,98666.45
2023-03-29T17:17:25.219Z,98671.30
2023-03-29T17:18:49.528Z,98668.18
2023-03-29T17:20:23.922Z,98670.11
2023-03-29T17:21:59.773Z,98673.52
2023-03-29T17:23:33.171Z,98675.02
2023-03-29T17:25:06.960Z,98677.83
2023-03-29T17:26:53.053Z,98677.20
2023-03-29T17:28:37.937Z,98677.44
2023-03-29T17:30:00.038Z,98680.65
2023-03-29T17:31:46.470Z,98679.48
2023-03-29T17:33:25.906Z,98689.08
2023-03-29T17:35:03.328Z,98684.19
2023-03-29T17:36:51.257Z,98674.52
2023-03-29T17:38:26.708Z,98682.98
2023-03-29T17:40:00.409Z,98684.77
2023-03-29T17:41:50.514Z,98681.12
2023-03-29T17:43:12.333Z,98683.75
2023-03-29T17:44:54.280Z,98679.80
2023-03-29T17:46:47.726Z,98675.52
2023-03-29T17:48:32.944Z,98677.63
2023-03-29T17:50:08.552Z,98677.33
2023-03-29T17:51:42.335Z,98675.95
2023-03-29T17:53:13.597Z,98676.73
2023-03-29T17:54:38.085Z,98678.84
2023-03-29T17:56:23.213Z,98677.63
2023-03-29T17:58:07.523Z,98681.30
2023-03-29T17:59:43.078Z,98684.05
2023-03-29T18:01:19.362Z,98688.22
2023-03-29T18:03:00.752Z,98687.47
2023-03-29T18:04:29.786Z,98682.44
2023-03-29T18:05:54.327Z,98683.79
2023-03-29T18:07:27.958Z,98680.97
2023-03-29T18:09:09.760Z,98676.70
2023-03-29T18:10:34.589Z,98678.52
2023-03-29T18:11:56.725Z,98673.90
2023-03-29T18:13:29.836Z,98651.72
2023-03-29T18:15:11.621Z,98672.10
2023-03-29T18:16:57.077Z,98676.13
2023-03-29T18:18:32.939Z,98675.70
2023-03-29T18:20:13.941Z,98681.03
2023-03-29T18:21:59.675Z,98684.27
2023-03-29T18:23:23.639Z,98686.19
2023-03-29T18:24:59.527Z,98686.42
2023-03-29T18:26:34.448Z,98687.59
2023-03-29T18:28:19.906Z,98684.33
2023-03-29T18:29:43.966Z,98687.11
2023-03-29T18:31:19.123Z,98691.86
2023-03-29T18:32:56.555Z,98690.90
2023-03-29T18:34:19.031Z,98693.75
2023-03-29T18:35:51.393Z,98692.17
2023-03-29T18:37:17.684Z,98682.54
2023-03-29T18:38:55.108Z,98693.43
2023-03-29T18:40:37.051Z,98695.65
2023-03-29T18:42:01.959Z,98693.22
2023-03-29T18:43:56.054Z,98691.58
2023-03-29T18:45:30.316Z,98690.09
2023-03-29T18:47:01.999Z,98694.78
2023-03-29T18:48:28.161Z,98692.00
2023-03-29T18:50:09.522Z,98693.83
2023-03-29T18:51:32.981Z,98677.59
2023-03-29T18:52:57.970Z,98691.18
2023-03-29T18:54:40.328Z,98692.67
2023-03-29T18:56:05.090Z,98689.33
2023-03-29T18:57:39.335Z,98687.09
2023-03-29T18:59:05.154Z,98681.89
2023-03-29T19:00:29.504Z,98682.52
2023-03-29T19:01:51.842Z,98680.92
2023-03-29T19:03:15.822Z,98677.99
2023-03-29T19:04:47.661Z,98681.42
2023-03-29T19:06:21.165Z,98682.92
2023-03-29T19:08:04.522Z,98683.13
2023-03-29T19:09:28.880Z,98680.81
2023-03-29T19:11:05.003Z,98687.81
2023-03-29T19:12:38.108Z,98688.77
2023-03-29T19:14:23.273Z,98683.90
2023-03-29T19:15:47.833Z,98681.36
2023-03-29T19:17:21.863Z,98679.33
2023-03-29T19:19:16.529Z,98678.30
2023-03-29T19:20:51.312Z,98680.98
2023-03-29T19:22:35.852Z,98676.94
2023-03-29T19:24:12.055Z,98674.41